createdAt,value
2023-03-21T00:00:59.551Z,83.30
2023-03-21T00:03:26.996Z,83.20
2023-03-21T00:05:54.319Z,83.20
2023-03-21T00:08:22.531Z,83.20
2023-03-21T00:10:55.685Z,83.80
2023-03-21T00:13:22.904Z,83.30
2023-03-21T00:16:18.317Z,83.40
2023-03-21T00:18:43.063Z,83.40
2023-03-21T00:23:59.127Z,83.50
2023-03-21T00:26:26.629Z,83.60
2023-03-21T00:28:53.900Z,83.50
2023-03-21T00:31:21.104Z,83.60
2023-03-21T00:33:50.063Z,83.60
2023-03-21T00:36:17.507Z,83.60
2023-03-21T00:38:44.852Z,83.60
2023-03-21T00:41:35.176Z,83.60
2023-03-21T00:44:00.150Z,83.70
2023-03-21T00:46:39.810Z,83.70
2023-03-21T00:49:09.818Z,83.70
2023-03-21T00:51:36.954Z,83.70
2023-03-21T00:54:05.880Z,83.70
2023-03-21T00:56:33.071Z,83.60
2023-03-21T00:59:00.459Z,83.60
2023-03-21T01:01:32.284Z,83.70
2023-03-21T01:04:13.744Z,83.80
2023-03-21T01:06:41.856Z,83.90
2023-03-21T01:09:14.136Z,83.90
2023-03-21T01:11:42.450Z,84.40
2023-03-21T01:14:22.001Z,84.00
2023-03-21T01:16:50.826Z,84.00
2023-03-21T01:19:25.612Z,84.00
2023-03-21T01:21:57.139Z,84.00
2023-03-21T01:24:24.913Z,84.40
2023-03-21T01:26:52.140Z,83.90
2023-03-21T01:29:19.285Z,83.90
2023-03-21T01:31:46.740Z,84.00
2023-03-21T01:34:13.990Z,84.00
2023-03-21T01:36:41.580Z,84.00
2023-03-21T01:39:14.547Z,84.10
2023-03-21T01:41:44.088Z,84.00
2023-03-21T01:44:31.004Z,84.10
2023-03-21T01:47:10.351Z,84.10
2023-03-21T01:49:41.100Z,84.00
2023-03-21T01:52:29.868Z,84.20
2023-03-21T01:55:04.907Z,84.30
2023-03-21T01:57:52.222Z,84.20
2023-03-21T02:00:31.954Z,84.40
2023-03-21T02:03:26.320Z,84.40
2023-03-21T02:06:22.386Z,84.40
2023-03-21T02:08:54.803Z,84.50
2023-03-21T02:11:22.516Z,84.50
2023-03-21T02:13:53.643Z,84.50
2023-03-21T02:16:23.898Z,84.50
2023-03-21T02:19:00.118Z,84.40
2023-03-21T02:21:49.623Z,84.60
2023-03-21T02:24:25.827Z,84.50
2023-03-21T02:27:04.421Z,84.40
2023-03-21T02:29:35.451Z,84.50
2023-03-21T02:32:34.946Z,84.50
2023-03-21T02:35:23.061Z,84.40
2023-03-21T02:38:03.148Z,84.50
2023-03-21T02:40:42.975Z,84.50
2023-03-21T02:43:20.792Z,84.60
2023-03-21T02:46:10.738Z,84.60
2023-03-21T02:48:50.134Z,84.60
2023-03-21T02:51:20.166Z,84.60
2023-03-21T02:53:54.953Z,84.60
2023-03-21T02:56:37.092Z,84.60
2023-03-21T02:59:05.527Z,84.70
2023-03-21T03:01:34.354Z,84.60
2023-03-21T03:04:02.518Z,84.60
2023-03-21T03:06:38.213Z,84.60
2023-03-21T03:09:05.295Z,84.60
2023-03-21T03:11:33.161Z,84.80
2023-03-21T03:14:40.093Z,84.80
2023-03-21T03:17:16.191Z,84.90
2023-03-21T03:20:15.120Z,84.70
2023-03-21T03:22:50.569Z,84.80
2023-03-21T03:25:29.823Z,84.80
2023-03-21T03:28:07.806Z,84.80
2023-03-21T03:30:44.758Z,84.90
2023-03-21T03:33:17.306Z,84.90
2023-03-21T03:35:50.312Z,84.90
2023-03-21T03:38:22.244Z,85.00
2023-03-21T03:40:58.109Z,85.00
2023-03-21T03:43:41.740Z,85.00
2023-03-21T03:46:12.547Z,85.00
2023-03-21T03:48:53.827Z,84.90
2023-03-21T03:51:24.147Z,85.00
2023-03-21T03:54:13.117Z,84.90
2023-03-21T03:56:40.838Z,84.90
2023-03-21T03:59:08.276Z,84.90
2023-03-21T04:01:50.041Z,84.80
2023-03-21T04:04:18.067Z,84.90
2023-03-21T04:06:51.704Z,84.90
2023-03-21T04:09:31.485Z,84.80
2023-03-21T04:12:04.887Z,84.80
2023-03-21T04:14:44.122Z,84.90
2023-03-21T04:17:13.299Z,84.80
2023-03-21T04:19:40.383Z,84.80
2023-03-21T04:22:07.527Z,84.80
2023-03-21T04:24:40.102Z,84.80
2023-03-21T04:27:07.339Z,84.80
2023-03-21T04:29:39.724Z,84.90
2023-03-21T04:32:27.343Z,84.80
2023-03-21T04:35:04.255Z,84.90
2023-03-21T04:37:34.003Z,84.80
2023-03-21T04:40:06.924Z,84.80
2023-03-21T04:42:35.358Z,84.90
2023-03-21T04:45:02.974Z,84.90
2023-03-21T04:47:30.378Z,84.90
2023-03-21T04:49:57.533Z,84.90
2023-03-21T04:52:25.538Z,84.90
2023-03-21T04:54:52.806Z,85.00
2023-03-21T04:57:20.750Z,85.00
2023-03-21T04:59:47.857Z,84.90
2023-03-21T05:02:16.120Z,85.00
2023-03-21T05:04:43.607Z,85.00
2023-03-21T05:07:11.204Z,85.00
2023-03-21T05:09:38.531Z,85.00
2023-03-21T05:12:05.966Z,85.00
2023-03-21T05:14:35.008Z,85.00
2023-03-21T05:17:05.648Z,85.00
2023-03-21T05:19:40.766Z,84.90
2023-03-21T05:22:09.943Z,85.00
2023-03-21T05:24:41.992Z,85.00
2023-03-21T05:27:35.526Z,85.70
2023-03-21T05:30:10.738Z,85.20
2023-03-21T05:32:38.166Z,85.10
2023-03-21T05:35:08.893Z,85.10
2023-03-21T05:37:36.194Z,85.10
2023-03-21T05:40:06.444Z,85.20
2023-03-21T05:42:34.366Z,85.20
2023-03-21T05:45:11.700Z,85.20
2023-03-21T05:47:39.771Z,85.10
2023-03-21T05:50:07.742Z,85.10
2023-03-21T05:52:36.269Z,85.20
2023-03-21T05:55:10.945Z,85.20
2023-03-21T05:57:41.088Z,85.20
2023-03-21T06:00:13.834Z,85.20
2023-03-21T06:02:44.163Z,85.30
2023-03-21T06:05:33.126Z,85.30
2023-03-21T06:08:01.142Z,85.30
2023-03-21T06:10:28.306Z,85.30
2023-03-21T06:12:55.440Z,85.30
2023-03-21T06:15:32.880Z,85.30
2023-03-21T06:18:13.393Z,85.20
2023-03-21T06:20:50.918Z,85.30
2023-03-21T06:23:18.220Z,85.30
2023-03-21T06:25:45.525Z,85.30
2023-03-21T06:28:13.012Z,85.40
2023-03-21T06:30:41.864Z,85.40
2023-03-21T06:33:14.766Z,85.30
2023-03-21T06:35:43.253Z,85.30
2023-03-21T06:38:10.957Z,85.30
2023-03-21T06:40:40.469Z,85.30
2023-03-21T06:43:07.642Z,85.30
2023-03-21T06:45:35.164Z,85.30
2023-03-21T06:48:02.567Z,85.30
2023-03-21T06:50:41.431Z,85.30
2023-03-21T06:53:08.916Z,85.30
2023-03-21T06:55:56.486Z,85.30
2023-03-21T06:58:23.759Z,85.30
2023-03-21T07:00:51.189Z,85.30
2023-03-21T07:03:19.363Z,85.30
2023-03-21T07:05:46.802Z,85.40
2023-03-21T07:08:16.157Z,85.40
2023-03-21T07:10:45.402Z,85.40
2023-03-21T07:13:13.537Z,85.40
2023-03-21T07:15:54.534Z,85.40
2023-03-21T07:18:22.121Z,85.40
2023-03-21T07:20:52.856Z,85.50
2023-03-21T07:23:21.341Z,85.50
2023-03-21T07:25:49.538Z,85.50
2023-03-21T07:28:17.037Z,85.60
2023-03-21T07:30:45.043Z,85.60
2023-03-21T07:33:12.781Z,85.60
2023-03-21T07:35:40.525Z,85.60
2023-03-21T07:38:08.171Z,85.50
2023-03-21T07:40:36.581Z,85.60
2023-03-21T07:43:03.934Z,85.60
2023-03-21T07:45:34.528Z,85.60
2023-03-21T07:48:01.945Z,85.60
2023-03-21T07:50:32.558Z,85.60
2023-03-21T07:52:59.903Z,85.60
2023-03-21T07:55:27.316Z,85.50
2023-03-21T07:57:54.557Z,85.50
2023-03-21T08:00:24.811Z,85.70
2023-03-21T08:02:57.831Z,85.60
2023-03-21T08:05:27.045Z,85.60
2023-03-21T08:07:54.678Z,85.60
2023-03-21T08:10:21.767Z,85.60
2023-03-21T08:12:49.050Z,85.60
2023-03-21T08:15:16.281Z,85.60
2023-03-21T08:17:45.659Z,85.60
2023-03-21T08:20:14.578Z,85.60
2023-03-21T08:22:42.158Z,85.50
2023-03-21T08:25:11.310Z,85.50
2023-03-21T08:27:38.466Z,85.50
2023-03-21T08:30:05.966Z,85.50
2023-03-21T08:32:33.919Z,85.60
2023-03-21T08:35:01.895Z,85.60
2023-03-21T08:37:29.113Z,85.50
2023-03-21T08:39:56.300Z,85.50
2023-03-21T08:42:23.532Z,85.50
2023-03-21T08:44:51.017Z,85.50
2023-03-21T08:47:18.250Z,85.50
2023-03-21T08:49:47.948Z,85.40
2023-03-21T08:52:15.116Z,85.50
2023-03-21T08:54:42.774Z,85.40
2023-03-21T08:57:11.257Z,85.30
2023-03-21T08:59:38.694Z,85.30
2023-03-21T09:02:05.894Z,85.20
2023-03-21T09:04:33.961Z,85.10
2023-03-21T09:07:05.019Z,85.00
2023-03-21T09:09:32.587Z,85.00
2023-03-21T09:11:59.870Z,84.90
2023-03-21T09:14:29.198Z,84.90
2023-03-21T09:16:56.468Z,84.80
2023-03-21T09:19:24.398Z,84.80
2023-03-21T09:21:53.545Z,84.70
2023-03-21T09:24:20.820Z,84.80
2023-03-21T09:26:54.013Z,84.80
2023-03-21T09:29:21.631Z,84.80
2023-03-21T09:31:48.888Z,84.90
2023-03-21T09:34:16.056Z,84.90
2023-03-21T09:36:44.445Z,84.80
2023-03-21T09:39:12.879Z,84.80
2023-03-21T09:41:59.004Z,84.80
2023-03-21T09:44:37.988Z,84.60
2023-03-21T09:47:11.334Z,84.60
2023-03-21T09:49:41.314Z,84.50
2023-03-21T09:52:26.333Z,84.30
2023-03-21T09:54:55.837Z,84.30
2023-03-21T09:57:27.323Z,84.30
2023-03-21T09:59:54.947Z,84.40
2023-03-21T10:02:32.622Z,84.40
2023-03-21T10:05:00.475Z,84.30
2023-03-21T10:07:30.916Z,84.30
2023-03-21T10:09:59.863Z,84.30
2023-03-21T10:12:30.830Z,84.30
2023-03-21T10:14:59.375Z,84.20
2023-03-21T10:17:26.588Z,84.10
2023-03-21T10:20:01.341Z,84.20
2023-03-21T10:22:29.127Z,84.20
2023-03-21T10:24:56.241Z,84.10
2023-03-21T10:27:23.494Z,84.00
2023-03-21T10:29:53.394Z,83.80
2023-03-21T10:32:23.030Z,83.80
2023-03-21T10:37:24.523Z,83.70
2023-03-21T10:39:54.398Z,83.50
2023-03-21T10:42:31.671Z,83.50
2023-03-21T10:44:59.068Z,83.60
2023-03-21T10:47:34.095Z,83.40
2023-03-21T10:50:07.780Z,83.40
2023-03-21T10:52:37.538Z,83.50
2023-03-21T10:55:08.689Z,83.60
2023-03-21T10:57:38.248Z,83.50
2023-03-21T11:00:15.106Z,83.60
2023-03-21T11:02:43.260Z,83.60
2023-03-21T11:05:24.690Z,83.60
2023-03-21T11:07:59.782Z,83.60
2023-03-21T11:10:32.179Z,83.40
2023-03-21T11:13:02.458Z,83.10
2023-03-21T11:15:31.799Z,83.20
2023-03-21T11:17:59.792Z,83.20
2023-03-21T11:20:30.068Z,82.80
2023-03-21T11:22:57.425Z,82.80
2023-03-21T11:25:38.367Z,82.80
2023-03-21T11:28:07.357Z,82.70
2023-03-21T11:30:35.007Z,82.90
2023-03-21T11:33:06.445Z,82.90
2023-03-21T11:35:44.099Z,82.90
2023-03-21T11:38:26.077Z,82.80
2023-03-21T11:40:54.964Z,82.40
2023-03-21T11:43:23.253Z,82.30
2023-03-21T11:45:58.152Z,82.30
2023-03-21T11:48:25.829Z,82.50
2023-03-21T11:50:58.546Z,82.30
2023-03-21T11:53:41.777Z,82.40
2023-03-21T11:56:27.710Z,82.50
2023-03-21T11:59:15.982Z,82.40
2023-03-21T12:02:07.942Z,82.00
2023-03-21T12:04:38.026Z,81.90
2023-03-21T12:07:24.066Z,81.60
2023-03-21T12:09:56.156Z,81.60
2023-03-21T12:12:33.022Z,81.20
2023-03-21T12:15:25.787Z,80.90
2023-03-21T12:17:56.134Z,80.20
2023-03-21T12:20:23.263Z,80.50
2023-03-21T12:23:01.230Z,80.50
2023-03-21T12:25:31.659Z,80.60
2023-03-21T12:28:02.896Z,80.90
2023-03-21T12:30:34.190Z,81.00
2023-03-21T12:33:13.835Z,81.10
2023-03-21T12:35:41.274Z,81.10
2023-03-21T12:38:20.992Z,80.30
2023-03-21T12:40:51.217Z,80.40
2023-03-21T12:43:37.299Z,80.30
2023-03-21T12:46:06.547Z,80.30
2023-03-21T12:48:38.046Z,80.30
2023-03-21T12:51:08.645Z,80.50
2023-03-21T12:53:45.123Z,79.90
2023-03-21T12:56:15.664Z,80.20
2023-03-21T12:59:09.363Z,80.10
2023-03-21T13:01:37.981Z,80.00
2023-03-21T13:04:32.718Z,80.20
2023-03-21T13:07:02.580Z,80.20
2023-03-21T13:09:39.849Z,80.30
2023-03-21T13:12:27.366Z,80.60
2023-03-21T13:15:24.587Z,80.50
2023-03-21T13:18:03.982Z,80.50
2023-03-21T13:20:49.656Z,80.30
2023-03-21T13:23:18.814Z,80.40
2023-03-21T13:25:50.807Z,80.40
2023-03-21T13:28:28.980Z,80.00
2023-03-21T13:31:14.726Z,79.90
2023-03-21T13:33:46.004Z,79.00
2023-03-21T13:36:13.829Z,78.90
2023-03-21T13:38:41.557Z,79.40
2023-03-21T13:41:17.514Z,79.60
2023-03-21T13:43:51.680Z,79.20
2023-03-21T13:46:25.162Z,78.90
2023-03-21T13:49:10.899Z,78.70
2023-03-21T13:51:38.041Z,78.90
2023-03-21T13:54:05.159Z,79.00
2023-03-21T13:56:47.319Z,78.70
2023-03-21T13:59:18.270Z,77.90
2023-03-21T14:02:01.515Z,78.30
2023-03-21T14:04:41.880Z,78.30
2023-03-21T14:07:16.141Z,77.80
2023-03-21T14:09:46.194Z,77.40
2023-03-21T14:12:18.634Z,77.00
2023-03-21T14:14:47.175Z,77.00
2023-03-21T14:17:14.290Z,77.00
2023-03-21T14:19:41.424Z,77.10
2023-03-21T14:22:13.607Z,77.60
2023-03-21T14:24:41.418Z,77.40
2023-03-21T14:27:08.776Z,77.40
2023-03-21T14:29:36.101Z,77.70
2023-03-21T14:32:03.870Z,77.90
2023-03-21T14:34:33.190Z,77.00
2023-03-21T14:37:00.638Z,75.90
2023-03-21T14:39:32.136Z,75.50
2023-03-21T14:42:11.562Z,74.20
2023-03-21T14:44:56.338Z,75.00
2023-03-21T14:47:25.236Z,75.80
2023-03-21T14:49:52.706Z,75.40
2023-03-21T14:52:22.380Z,75.20
2023-03-21T14:54:49.535Z,74.00
2023-03-21T14:57:21.555Z,74.10
2023-03-21T14:59:50.865Z,74.70
2023-03-21T15:02:23.675Z,75.30
2023-03-21T15:04:52.790Z,74.90
2023-03-21T15:07:28.147Z,74.00
2023-03-21T15:09:56.800Z,74.30
2023-03-21T15:12:24.182Z,74.00
2023-03-21T15:14:51.955Z,73.30
2023-03-21T15:17:19.891Z,72.60
2023-03-21T15:19:47.087Z,73.60
2023-03-21T15:22:33.298Z,72.90
2023-03-21T15:25:03.545Z,73.70
2023-03-21T15:27:32.946Z,72.60
2023-03-21T15:30:00.077Z,72.70
2023-03-21T15:32:28.647Z,72.50
2023-03-21T15:35:03.596Z,73.30
2023-03-21T15:37:33.685Z,73.00
2023-03-21T15:40:18.585Z,71.90
2023-03-21T15:42:45.922Z,73.20
2023-03-21T15:45:22.454Z,73.50
2023-03-21T15:47:49.702Z,72.30
2023-03-21T15:50:36.824Z,72.20
2023-03-21T15:53:17.967Z,72.40
2023-03-21T15:55:52.154Z,72.00
2023-03-21T15:58:20.717Z,72.20
2023-03-21T16:00:52.202Z,73.20
2023-03-21T16:03:30.576Z,72.80
2023-03-21T16:06:07.821Z,73.20
2023-03-21T16:08:37.084Z,73.20
2023-03-21T16:11:28.500Z,73.90
2023-03-21T16:13:56.476Z,73.90
2023-03-21T16:16:24.977Z,73.40
2023-03-21T16:18:52.990Z,73.90
2023-03-21T16:21:21.591Z,73.60
2023-03-21T16:23:49.048Z,74.10
2023-03-21T16:26:23.484Z,74.50
2023-03-21T16:28:51.066Z,74.60
2023-03-21T16:31:19.343Z,74.60
2023-03-21T16:33:46.620Z,74.80
2023-03-21T16:36:18.023Z,74.90
2023-03-21T16:38:46.193Z,75.20
2023-03-21T16:41:14.285Z,75.30
2023-03-21T16:43:43.483Z,75.50
2023-03-21T16:46:31.064Z,75.50
2023-03-21T16:48:58.814Z,75.70
2023-03-21T16:51:30.659Z,75.90
2023-03-21T16:53:58.268Z,76.10
2023-03-21T16:56:26.984Z,76.40
2023-03-21T16:58:54.606Z,76.50
2023-03-21T17:01:26.169Z,76.60
2023-03-21T17:03:54.467Z,76.80
2023-03-21T17:06:22.941Z,76.90
2023-03-21T17:08:50.315Z,77.00
2023-03-21T17:11:20.247Z,77.30
2023-03-21T17:13:48.201Z,77.40
2023-03-21T17:16:17.120Z,77.60
2023-03-21T17:18:44.776Z,77.90
2023-03-21T17:21:13.289Z,78.20
2023-03-21T17:23:40.626Z,78.30
2023-03-21T17:26:10.885Z,78.40
2023-03-21T17:28:38.532Z,78.60
2023-03-21T17:31:15.651Z,78.60
2023-03-21T17:33:43.300Z,78.80
2023-03-21T17:36:14.885Z,78.90
2023-03-21T17:38:42.624Z,79.10
2023-03-21T17:41:11.610Z,79.30
2023-03-21T17:43:38.656Z,79.40
2023-03-21T17:46:05.998Z,79.40
2023-03-21T17:48:33.247Z,79.80
2023-03-21T17:51:00.394Z,79.80
2023-03-21T17:53:27.738Z,80.20
2023-03-21T17:55:55.255Z,80.00
2023-03-21T17:58:22.551Z,80.20
2023-03-21T18:00:49.697Z,80.20
2023-03-21T18:03:18.645Z,80.40
2023-03-21T18:05:46.750Z,80.40
2023-03-21T18:08:14.159Z,80.50
2023-03-21T18:10:42.164Z,80.60
2023-03-21T18:13:09.938Z,80.50
2023-03-21T18:15:38.224Z,80.80
2023-03-21T18:18:05.964Z,80.70
2023-03-21T18:23:21.137Z,80.80
2023-03-21T18:25:48.832Z,80.80
2023-03-21T18:28:20.575Z,81.00
2023-03-21T18:33:40.665Z,81.50
2023-03-21T18:36:08.551Z,80.90
2023-03-21T18:38:36.600Z,80.90
2023-03-21T18:41:04.094Z,80.90
2023-03-21T18:46:18.393Z,80.90
2023-03-21T18:48:47.972Z,80.90
2023-03-21T18:51:17.778Z,80.70
2023-03-21T18:53:45.797Z,80.60
2023-03-21T18:56:46.623Z,80.60
2023-03-21T18:59:01.263Z,80.50
2023-03-21T19:01:28.543Z,80.40
2023-03-21T19:04:21.374Z,80.40
2023-03-21T19:06:47.994Z,80.50
2023-03-21T19:09:15.159Z,80.60
2023-03-21T19:11:42.854Z,80.70
2023-03-21T19:14:11.746Z,80.70
2023-03-21T19:17:07.194Z,80.80
2023-03-21T19:19:26.944Z,80.80
2023-03-21T19:21:54.531Z,81.00
2023-03-21T19:24:28.248Z,81.00
2023-03-21T19:26:56.470Z,81.10
2023-03-21T19:29:26.386Z,81.10
2023-03-21T19:31:54.541Z,81.10
2023-03-21T19:34:21.861Z,81.10
2023-03-21T19:36:51.809Z,81.10
2023-03-21T19:39:22.953Z,81.20
2023-03-21T19:41:50.834Z,81.30
2023-03-21T19:44:18.287Z,81.30
2023-03-21T19:46:45.801Z,81.40
2023-03-21T19:49:13.147Z,81.50
2023-03-21T19:51:40.871Z,81.50
2023-03-21T19:54:08.381Z,81.50
2023-03-21T19:56:37.658Z,81.40
2023-03-21T19:59:05.013Z,81.50
2023-03-21T20:01:34.879Z,81.60
2023-03-21T20:04:02.322Z,81.50
2023-03-21T20:06:34.883Z,81.60
2023-03-21T20:09:47.268Z,81.70
2023-03-21T20:11:50.314Z,81.70
2023-03-21T20:14:18.927Z,81.60
2023-03-21T20:16:47.234Z,81.60
2023-03-21T20:19:16.395Z,81.50
2023-03-21T20:21:49.770Z,81.50
2023-03-21T20:24:20.817Z,82.10
2023-03-21T20:26:49.444Z,81.50
2023-03-21T20:30:07.099Z,81.60
2023-03-21T20:32:04.240Z,81.50
2023-03-21T20:34:31.471Z,81.50
2023-03-21T20:36:59.019Z,81.50
2023-03-21T20:39:29.787Z,81.60
2023-03-21T20:41:59.431Z,81.60
2023-03-21T20:44:57.137Z,81.70
2023-03-21T20:47:14.876Z,81.70
2023-03-21T20:49:42.046Z,81.80
2023-03-21T20:54:59.869Z,81.70
2023-03-21T20:57:27.720Z,81.70
2023-03-21T20:59:55.047Z,81.60
2023-03-21T21:02:22.604Z,81.60
2023-03-21T21:05:21.421Z,81.60
2023-03-21T21:07:37.175Z,81.50
2023-03-21T21:10:04.492Z,81.50
2023-03-21T21:12:31.800Z,81.50
2023-03-21T21:14:58.929Z,81.50
2023-03-21T21:17:50.912Z,81.60
2023-03-21T21:20:16.564Z,81.60
2023-03-21T21:22:46.093Z,81.50
2023-03-21T21:25:24.287Z,81.60
2023-03-21T21:27:51.917Z,81.50
2023-03-21T21:30:19.190Z,81.50
2023-03-21T21:32:46.292Z,81.40
2023-03-21T21:35:13.415Z,81.40
2023-03-21T21:37:42.131Z,81.30
2023-03-21T21:40:20.691Z,81.20
2023-03-21T21:42:47.874Z,81.10
2023-03-21T21:45:15.819Z,81.10
2023-03-21T21:47:44.152Z,81.00
2023-03-21T21:50:11.360Z,81.00
2023-03-21T21:52:38.686Z,81.10
2023-03-21T21:55:06.646Z,81.10
2023-03-21T21:57:34.711Z,81.10
2023-03-21T22:00:06.996Z,81.00
2023-03-21T22:02:40.604Z,80.90
2023-03-21T22:05:09.135Z,81.00
2023-03-21T22:07:37.701Z,80.90
2023-03-21T22:10:05.195Z,80.80
2023-03-21T22:12:32.483Z,80.90
2023-03-21T22:14:59.684Z,80.80
2023-03-21T22:17:26.934Z,80.90
2023-03-21T22:20:05.106Z,80.80
2023-03-21T22:22:33.679Z,80.80
2023-03-21T22:25:00.961Z,80.90
2023-03-21T22:27:28.187Z,80.90
2023-03-21T22:29:56.161Z,80.90
2023-03-21T22:32:23.533Z,80.90
2023-03-21T22:34:50.881Z,80.90
2023-03-21T22:37:18.070Z,81.00
2023-03-21T22:39:45.141Z,81.00
2023-03-21T22:42:12.349Z,81.00
2023-03-21T22:44:39.521Z,81.00
2023-03-21T22:47:08.290Z,81.10
2023-03-21T22:49:35.559Z,81.20
2023-03-21T22:52:03.602Z,81.10
2023-03-21T22:54:33.879Z,81.20
2023-03-21T22:57:01.206Z,81.30
2023-03-21T22:59:28.787Z,81.20
2023-03-21T23:01:56.823Z,81.20
2023-03-21T23:04:24.806Z,81.20
2023-03-21T23:06:51.938Z,81.10
2023-03-21T23:09:19.092Z,81.10
2023-03-21T23:11:49.572Z,81.20
2023-03-21T23:14:17.682Z,81.10
2023-03-21T23:16:45.283Z,81.10
2023-03-21T23:19:12.624Z,81.10
2023-03-21T23:21:39.806Z,81.10
2023-03-21T23:24:07.735Z,81.10
2023-03-21T23:26:34.969Z,81.10
2023-03-21T23:29:02.217Z,81.10
2023-03-21T23:31:29.452Z,81.10
2023-03-21T23:33:58.501Z,81.10
2023-03-21T23:36:25.896Z,81.10
2023-03-21T23:38:53.106Z,81.10
2023-03-21T23:41:21.785Z,81.10
2023-03-21T23:43:48.936Z,81.10
2023-03-21T23:46:17.559Z,81.10
2023-03-21T23:48:45.026Z,81.10
2023-03-21T23:51:13.226Z,81.20
2023-03-21T23:53:40.365Z,81.20
2023-03-21T23:56:15.010Z,81.10
2023-03-21T23:58:42.248Z,81.10
